Time;durP1;ratioP1;P1;durP2;ratioP2;P2;SDS_P1;SDS_P2;PMS_P1;PMS_P2;Temp;Humidity;BMP_temperature;BMP_pressure;BME280_temperature;BME280_humidity;BME280_pressure;Samples;Min_cycle;Max_cycle;Signal;HPM_P1;HPM_P2
2021/12/29 00:02:15;;;;;;;2.35;1.55;;;7.80;99.90;;;;;;5032508;28;20198;-84
2021/12/29 00:04:42;;;;;;;4.80;1.92;;;7.90;99.90;;;;;;5042316;28;20200;-84
2021/12/29 00:07:11;;;;;;;4.50;3.53;;;7.90;99.90;;;;;;5029399;28;20258;-85
2021/12/29 00:09:40;;;;;;;3.28;1.95;;;8.00;99.90;;;;;;5021997;28;20227;-84
2021/12/29 00:12:08;;;;;;;3.85;0.85;;;7.80;99.90;;;;;;5021401;28;20211;-85
2021/12/29 00:14:35;;;;;;;3.10;1.65;;;7.90;99.90;;;;;;5018997;28;20221;-83
2021/12/29 00:17:03;;;;;;;2.72;1.33;;;7.90;99.90;;;;;;5017820;28;20195;-83
2021/12/29 00:19:30;;;;;;;8.52;3.05;;;7.80;99.90;;;;;;5019288;28;20230;-84
2021/12/29 00:21:57;;;;;;;1.10;1.00;;;8.00;99.90;;;;;;5019973;28;20218;-86
2021/12/29 00:24:25;;;;;;;2.08;0.88;;;7.90;99.90;;;;;;5019618;28;20203;-86
2021/12/29 00:26:52;;;;;;;1.95;0.85;;;7.80;99.90;;;;;;5025020;28;20215;-85
2021/12/29 00:29:19;;;;;;;3.75;1.20;;;7.90;99.90;;;;;;5020070;28;20250;-84
2021/12/29 00:31:45;;;;;;;2.55;0.90;;;7.90;99.90;;;;;;5024966;28;20661;-88
2021/12/29 00:34:12;;;;;;;1.77;1.23;;;7.90;99.90;;;;;;5021576;28;20573;-86
2021/12/29 00:36:39;;;;;;;5.35;1.40;;;7.90;99.90;;;;;;5019946;28;20199;-83
2021/12/29 00:39:06;;;;;;;3.65;1.60;;;7.90;99.90;;;;;;5021307;28;20222;-86
2021/12/29 00:41:35;;;;;;;5.47;0.93;;;7.80;99.90;;;;;;5022577;28;20578;-84
2021/12/29 00:44:02;;;;;;;1.77;1.17;;;7.90;99.90;;;;;;5022320;28;20231;-85
2021/12/29 00:46:29;;;;;;;2.92;1.40;;;7.90;99.90;;;;;;5021585;28;20214;-83
2021/12/29 00:48:56;;;;;;;3.45;2.33;;;7.90;99.90;;;;;;5029144;28;20199;-84
2021/12/29 00:51:23;;;;;;;3.15;2.30;;;7.80;99.90;;;;;;5026763;28;20242;-85
2021/12/29 00:53:50;;;;;;;3.70;1.20;;;7.80;99.90;;;;;;5020395;28;20203;-85
2021/12/29 00:56:17;;;;;;;2.15;1.08;;;7.80;99.90;;;;;;5022675;28;20203;-85
2021/12/29 00:58:45;;;;;;;3.80;1.05;;;7.80;99.90;;;;;;5019193;28;20230;-85
2021/12/29 01:01:12;;;;;;;3.22;1.60;;;7.80;99.90;;;;;;5019839;28;20739;-86
2021/12/29 01:03:39;;;;;;;1.40;1.30;;;7.80;99.90;;;;;;5022576;28;20203;-85
2021/12/29 01:06:06;;;;;;;2.22;1.25;;;7.80;99.90;;;;;;5017458;28;20238;-85
2021/12/29 01:08:33;;;;;;;2.75;0.68;;;7.90;99.90;;;;;;5020504;28;20298;-86
2021/12/29 01:11:00;;;;;;;9.48;2.35;;;7.90;99.90;;;;;;5019704;28;20601;-85
2021/12/29 01:13:31;;;;;;;1.40;1.30;;;7.90;99.90;;;;;;5019785;28;20203;-85
2021/12/29 01:16:16;;;;;;;2.45;1.83;;;7.90;99.90;;;;;;5022287;28;20203;-85
2021/12/29 01:18:44;;;;;;;3.45;1.27;;;7.80;99.90;;;;;;5017135;28;20195;-86
2021/12/29 01:21:11;;;;;;;2.83;1.20;;;7.80;99.90;;;;;;5019475;28;20704;-86
2021/12/29 01:23:38;;;;;;;1.85;1.45;;;7.80;99.90;;;;;;5020023;28;20203;-85
2021/12/29 01:26:05;;;;;;;2.42;0.77;;;7.80;99.90;;;;;;5024316;28;20202;-86
2021/12/29 01:28:32;;;;;;;0.50;0.50;;;7.70;99.90;;;;;;5024050;28;20206;-85
2021/12/29 01:31:00;;;;;;;0.93;0.77;;;7.60;99.90;;;;;;5022269;28;20218;-85
2021/12/29 01:33:27;;;;;;;0.98;0.70;;;7.70;99.90;;;;;;5000137;28;20208;-85
2021/12/29 01:35:54;;;;;;;1.30;0.55;;;7.70;99.90;;;;;;5013339;28;20284;-86
2021/12/29 01:38:21;;;;;;;0.82;0.80;;;7.70;99.90;;;;;;5030722;28;20196;-85
2021/12/29 01:40:49;;;;;;;1.35;0.95;;;7.70;99.90;;;;;;5018407;28;20231;-83
2021/12/29 01:43:17;;;;;;;2.38;1.00;;;7.80;99.90;;;;;;5018995;28;20195;-85
2021/12/29 01:45:44;;;;;;;0.65;0.65;;;7.90;99.90;;;;;;5018714;28;20203;-85
2021/12/29 01:48:12;;;;;;;1.17;1.08;;;7.80;99.90;;;;;;5019326;28;20214;-85
2021/12/29 01:50:40;;;;;;;2.15;0.60;;;7.90;99.90;;;;;;5017822;28;20227;-85
2021/12/29 01:53:08;;;;;;;4.43;1.25;;;8.00;99.90;;;;;;5033502;28;20891;-83
2021/12/29 01:55:36;;;;;;;2.38;1.05;;;8.00;99.90;;;;;;5017848;28;20230;-84
2021/12/29 01:58:10;;;;;;;1.20;1.10;;;8.10;99.90;;;;;;5036281;28;20680;-84
2021/12/29 02:00:38;;;;;;;0.80;0.80;;;8.10;99.90;;;;;;5035807;28;20232;-83
2021/12/29 02:03:07;;;;;;;1.40;1.25;;;8.10;99.90;;;;;;5021023;28;20214;-83
2021/12/29 02:05:35;;;;;;;1.85;1.30;;;8.10;99.90;;;;;;5017483;28;20207;-85
2021/12/29 02:08:04;;;;;;;5.80;1.50;;;8.10;99.90;;;;;;5034708;28;20207;-84
2021/12/29 02:10:35;;;;;;;1.10;1.00;;;8.00;99.90;;;;;;5020174;28;20219;-85
2021/12/29 02:13:03;;;;;;;1.33;1.25;;;8.10;99.90;;;;;;5034757;28;20578;-83
2021/12/29 02:15:33;;;;;;;0.73;0.70;;;8.10;99.90;;;;;;5019407;28;20214;-84
2021/12/29 02:20:49;;;;;;;0.50;0.50;;;8.00;99.90;;;;;;5015588;28;20230;-85
2021/12/29 02:23:21;;;;;;;1.48;0.80;;;8.10;99.90;;;;;;5017388;28;20251;-85
2021/12/29 02:25:53;;;;;;;1.95;0.70;;;8.00;99.90;;;;;;5016832;28;20203;-83
2021/12/29 02:28:28;;;;;;;0.63;0.63;;;7.90;99.90;;;;;;5016921;28;20261;-85
2021/12/29 02:31:08;;;;;;;2.40;0.80;;;7.90;99.90;;;;;;5015809;28;20276;-86
2021/12/29 02:33:35;;;;;;;0.70;0.70;;;7.90;99.90;;;;;;4997481;28;20669;-84
2021/12/29 02:36:06;;;;;;;0.52;0.52;;;8.00;99.90;;;;;;5015836;28;20217;-83
2021/12/29 02:38:43;;;;;;;1.33;0.40;;;8.00;99.90;;;;;;5016094;28;20298;-84
2021/12/29 02:41:10;;;;;;;1.10;0.90;;;7.90;99.90;;;;;;5015815;28;20236;-84
2021/12/29 02:43:39;;;;;;;1.75;0.52;;;7.90;99.90;;;;;;5016191;28;20211;-84
2021/12/29 02:46:11;;;;;;;0.50;0.50;;;7.90;99.90;;;;;;5019304;28;20216;-84
2021/12/29 02:48:41;;;;;;;0.75;0.50;;;7.90;99.90;;;;;;5040248;28;20569;-84
2021/12/29 02:51:09;;;;;;;0.73;0.50;;;7.80;99.90;;;;;;5034444;28;20249;-85
2021/12/29 02:53:37;;;;;;;0.60;0.60;;;7.70;99.90;;;;;;5016805;28;20211;-84
2021/12/29 02:56:18;;;;;;;1.42;0.40;;;7.80;99.90;;;;;;5016276;28;20211;-84
2021/12/29 02:58:45;;;;;;;3.22;0.40;;;7.80;99.90;;;;;;5016272;28;20656;-86
2021/12/29 03:01:14;;;;;;;0.40;0.30;;;7.90;99.90;;;;;;5023183;28;20222;-84
2021/12/29 03:03:41;;;;;;;0.30;0.30;;;7.80;99.90;;;;;;5038757;28;20213;-84
2021/12/29 03:06:10;;;;;;;0.50;0.50;;;7.80;99.90;;;;;;5023090;28;20199;-83
2021/12/29 03:08:38;;;;;;;0.47;0.45;;;7.90;99.90;;;;;;5024497;28;20211;-85
2021/12/29 03:11:06;;;;;;;0.30;0.30;;;8.00;99.90;;;;;;5025756;28;20255;-85
2021/12/29 03:13:35;;;;;;;0.40;0.40;;;8.00;99.90;;;;;;5025106;28;20226;-84
2021/12/29 03:16:02;;;;;;;0.20;0.20;;;8.10;99.90;;;;;;5025790;28;20242;-84
2021/12/29 03:18:30;;;;;;;3.45;0.45;;;8.10;99.90;;;;;;5020532;28;20261;-85
2021/12/29 03:20:57;;;;;;;0.85;0.60;;;8.10;99.90;;;;;;5018452;28;20231;-85
2021/12/29 03:23:26;;;;;;;1.10;0.50;;;8.10;99.90;;;;;;5018696;28;20218;-86
2021/12/29 03:25:53;;;;;;;1.23;0.43;;;8.00;99.90;;;;;;5018180;28;20210;-86
2021/12/29 03:28:23;;;;;;;0.30;0.30;;;8.10;99.90;;;;;;5018205;28;20210;-85
2021/12/29 03:30:53;;;;;;;0.63;0.63;;;8.20;99.90;;;;;;5016837;28;20220;-84
2021/12/29 03:33:22;;;;;;;0.30;0.28;;;8.10;99.90;;;;;;5017173;28;20235;-86
2021/12/29 03:35:51;;;;;;;3.80;0.90;;;8.20;99.90;;;;;;5030012;28;20209;-85
2021/12/29 03:38:21;;;;;;;1.52;0.70;;;8.30;99.90;;;;;;5037265;28;20230;-85
2021/12/29 03:40:49;;;;;;;0.60;0.60;;;8.40;99.90;;;;;;5022730;28;20263;-86
2021/12/29 03:43:16;;;;;;;0.77;0.77;;;8.50;99.90;;;;;;5017846;28;20210;-85
2021/12/29 03:45:46;;;;;;;3.15;0.77;;;8.50;99.90;;;;;;5018011;28;20676;-85
2021/12/29 03:48:14;;;;;;;1.77;1.67;;;8.50;99.90;;;;;;5018151;28;20207;-86
2021/12/29 03:50:42;;;;;;;0.60;0.50;;;8.50;99.90;;;;;;5029422;28;20218;-87
2021/12/29 03:56:16;;;;;;;0.50;0.50;;;8.70;99.90;;;;;;5036558;28;20286;-86
2021/12/29 04:01:38;;;;;;;1.50;0.77;;;8.60;99.90;;;;;;5038450;22;20231;-83
2021/12/29 04:04:05;;;;;;;0.93;0.90;;;8.70;99.90;;;;;;5015465;28;20672;-82
2021/12/29 04:06:32;;;;;;;0.98;0.98;;;8.70;99.90;;;;;;4997848;28;20208;-83
2021/12/29 04:08:58;;;;;;;0.77;0.68;;;8.60;99.90;;;;;;4996513;28;20569;-83
2021/12/29 04:11:26;;;;;;;1.23;1.13;;;8.70;99.90;;;;;;4980306;28;20231;-82
2021/12/29 04:13:53;;;;;;;6.65;1.63;;;8.60;99.90;;;;;;4977954;28;20215;-82
2021/12/29 04:16:20;;;;;;;1.55;0.60;;;8.60;99.90;;;;;;4979747;28;20204;-82
2021/12/29 04:19:06;;;;;;;0.55;0.55;;;8.60;99.90;;;;;;4980872;28;20227;-82
2021/12/29 04:21:34;;;;;;;0.55;0.55;;;8.60;99.90;;;;;;4995952;28;20759;-83
2021/12/29 04:24:00;;;;;;;0.82;0.82;;;8.70;99.90;;;;;;5000146;28;20235;-82
2021/12/29 04:26:29;;;;;;;2.35;0.73;;;8.70;99.90;;;;;;4985056;28;20678;-81
2021/12/29 04:28:55;;;;;;;0.60;0.60;;;8.70;99.90;;;;;;4980316;28;20208;-81
2021/12/29 04:31:22;;;;;;;2.05;0.80;;;8.70;99.90;;;;;;4980692;28;20236;-83
2021/12/29 04:33:49;;;;;;;0.65;0.65;;;8.70;99.90;;;;;;4980012;28;20212;-83
2021/12/29 04:36:16;;;;;;;1.45;0.63;;;8.60;99.90;;;;;;4991228;28;20219;-82
2021/12/29 04:38:43;;;;;;;1.60;1.00;;;8.60;99.90;;;;;;4998634;28;20215;-82
2021/12/29 04:41:10;;;;;;;1.02;0.80;;;8.60;99.90;;;;;;4982536;28;20224;-81
2021/12/29 04:43:38;;;;;;;0.70;0.70;;;8.60;99.90;;;;;;4981903;28;20239;-82
2021/12/29 04:46:04;;;;;;;1.35;0.90;;;8.50;99.90;;;;;;4981938;28;20200;-82
2021/12/29 04:48:37;;;;;;;3.05;0.80;;;8.50;99.90;;;;;;4983336;28;20211;-83
2021/12/29 04:51:11;;;;;;;1.85;1.10;;;8.50;99.90;;;;;;4997254;28;20231;-82
2021/12/29 04:53:38;;;;;;;1.45;1.20;;;8.50;99.90;;;;;;5000987;28;20208;-82
2021/12/29 04:56:05;;;;;;;0.52;0.52;;;8.30;99.90;;;;;;5004263;28;20220;-82
2021/12/29 04:58:32;;;;;;;1.48;0.82;;;8.20;99.90;;;;;;5004918;28;20211;-83
2021/12/29 05:01:00;;;;;;;2.05;0.90;;;8.10;99.90;;;;;;4991067;28;20606;-82
2021/12/29 05:03:27;;;;;;;2.47;1.75;;;8.00;99.90;;;;;;4984593;28;20230;-81
2021/12/29 05:05:57;;;;;;;1.52;1.00;;;8.10;99.90;;;;;;4985209;28;20216;-82
2021/12/29 05:08:27;;;;;;;0.80;0.80;;;8.10;99.90;;;;;;4982993;28;20267;-83
2021/12/29 05:10:57;;;;;;;2.88;0.95;;;8.00;99.90;;;;;;4983835;28;20655;-83
2021/12/29 05:13:24;;;;;;;1.40;0.70;;;8.00;99.90;;;;;;4982848;28;20212;-83
2021/12/29 05:15:51;;;;;;;1.25;1.15;;;8.00;99.90;;;;;;4982630;28;20216;-83
2021/12/29 05:18:19;;;;;;;1.35;0.75;;;7.90;99.90;;;;;;4982049;28;20213;-82
2021/12/29 05:20:46;;;;;;;0.70;0.70;;;7.90;99.90;;;;;;4981702;28;20235;-81
2021/12/29 05:23:13;;;;;;;1.80;1.70;;;7.90;99.90;;;;;;4981342;28;20599;-83
2021/12/29 05:25:40;;;;;;;1.20;0.85;;;7.80;99.90;;;;;;4991328;28;20200;-83
2021/12/29 05:28:07;;;;;;;1.90;0.65;;;7.80;99.90;;;;;;5000859;28;20222;-83
2021/12/29 05:30:34;;;;;;;1.10;1.00;;;7.90;99.90;;;;;;4988901;28;20216;-83
2021/12/29 05:33:01;;;;;;;1.27;1.17;;;7.90;99.90;;;;;;4981981;28;20300;-81
2021/12/29 05:35:29;;;;;;;0.55;0.55;;;8.00;99.90;;;;;;4992323;28;20211;-83
2021/12/29 05:37:57;;;;;;;3.20;1.23;;;8.00;99.90;;;;;;5001313;28;20216;-83
2021/12/29 05:40:25;;;;;;;1.35;0.80;;;7.90;99.90;;;;;;4991014;28;20234;-82
2021/12/29 05:42:52;;;;;;;0.75;0.75;;;8.00;99.90;;;;;;4980928;28;20208;-82
2021/12/29 05:45:18;;;;;;;1.13;1.00;;;8.00;99.90;;;;;;4984071;28;20203;-82
2021/12/29 05:47:46;;;;;;;2.65;0.88;;;8.00;99.90;;;;;;4994585;28;20203;-83
2021/12/29 05:50:16;;;;;;;1.10;0.80;;;8.00;99.90;;;;;;4999281;28;20228;-83
2021/12/29 05:52:45;;;;;;;1.30;0.73;;;8.10;99.90;;;;;;4999580;28;20867;-83
2021/12/29 05:55:12;;;;;;;0.73;0.73;;;8.00;99.90;;;;;;4991616;28;20587;-82
2021/12/29 05:57:39;;;;;;;2.15;1.10;;;8.10;99.90;;;;;;4979725;28;20231;-83
2021/12/29 06:00:07;;;;;;;1.02;0.60;;;8.20;99.90;;;;;;4979783;28;20228;-80
2021/12/29 06:02:34;;;;;;;3.45;0.93;;;8.20;99.90;;;;;;4979944;28;20238;-82
2021/12/29 06:05:01;;;;;;;1.45;0.82;;;8.30;99.90;;;;;;4980297;28;20212;-83
2021/12/29 06:07:27;;;;;;;1.63;0.73;;;8.20;99.90;;;;;;4979348;28;20216;-83
2021/12/29 06:09:55;;;;;;;4.40;1.00;;;8.20;99.90;;;;;;4979467;28;20251;-82
2021/12/29 06:12:22;;;;;;;2.25;0.57;;;8.20;99.90;;;;;;4978953;28;20215;-82
2021/12/29 06:14:49;;;;;;;1.58;0.85;;;8.10;99.90;;;;;;4995696;28;20204;-82
2021/12/29 06:17:16;;;;;;;0.95;0.68;;;8.20;99.90;;;;;;4999721;28;20207;-83
2021/12/29 06:19:42;;;;;;;1.65;0.85;;;8.10;99.90;;;;;;4993917;28;20289;-82
2021/12/29 06:22:10;;;;;;;3.15;0.88;;;8.10;99.90;;;;;;4992544;28;20234;-81
2021/12/29 06:24:37;;;;;;;0.93;0.82;;;8.10;99.90;;;;;;5000966;28;20242;-83
2021/12/29 06:27:06;;;;;;;1.05;0.95;;;8.20;99.90;;;;;;4998943;28;20825;-83
2021/12/29 06:29:33;;;;;;;2.17;1.13;;;8.20;99.90;;;;;;4985808;28;20213;-82
2021/12/29 06:32:00;;;;;;;2.00;1.10;;;8.10;99.90;;;;;;4978777;28;20689;-82
2021/12/29 06:34:27;;;;;;;3.75;1.17;;;8.10;99.90;;;;;;4990008;28;20320;-82
2021/12/29 06:36:54;;;;;;;1.70;1.20;;;8.00;99.90;;;;;;4998110;28;20203;-82
2021/12/29 06:39:20;;;;;;;1.45;1.33;;;8.00;99.90;;;;;;4997584;28;20196;-83
2021/12/29 06:41:47;;;;;;;1.27;0.80;;;8.00;99.90;;;;;;4997441;28;20274;-83
2021/12/29 06:44:15;;;;;;;0.93;0.80;;;8.00;99.90;;;;;;4997749;28;20197;-79
2021/12/29 06:46:42;;;;;;;2.50;1.05;;;8.00;99.90;;;;;;4997842;28;20200;-78
2021/12/29 06:49:09;;;;;;;1.30;1.08;;;8.00;99.90;;;;;;5013828;28;20327;-81
2021/12/29 06:51:35;;;;;;;2.65;1.02;;;8.00;99.90;;;;;;4997945;28;20736;-83
2021/12/29 06:54:02;;;;;;;8.52;2.38;;;8.00;99.90;;;;;;4979581;28;20212;-83
2021/12/29 06:56:29;;;;;;;3.15;1.50;;;8.00;99.90;;;;;;4989646;28;20214;-80
2021/12/29 06:58:56;;;;;;;2.30;1.33;;;7.90;99.90;;;;;;5013043;28;20192;-79
2021/12/29 07:01:24;;;;;;;3.20;1.42;;;7.90;99.90;;;;;;5010257;28;20238;-83
2021/12/29 07:03:50;;;;;;;1.88;1.10;;;8.00;99.90;;;;;;4982783;28;20208;-83
2021/12/29 07:06:17;;;;;;;1.98;0.70;;;8.00;99.90;;;;;;4983101;28;20204;-81
2021/12/29 07:08:44;;;;;;;0.98;0.85;;;8.10;99.90;;;;;;4996352;28;20204;-80
2021/12/29 07:11:10;;;;;;;4.63;1.73;;;8.10;99.90;;;;;;4997184;28;20225;-80
2021/12/29 07:13:37;;;;;;;1.30;0.90;;;8.00;99.90;;;;;;5001161;28;20212;-83
2021/12/29 07:16:04;;;;;;;4.28;1.17;;;8.10;99.90;;;;;;4997648;28;20211;-83
2021/12/29 07:18:32;;;;;;;3.75;1.85;;;8.10;99.90;;;;;;4986608;28;20209;-82
2021/12/29 07:20:59;;;;;;;2.90;1.63;;;8.20;99.90;;;;;;4978561;28;20224;-83
2021/12/29 07:23:26;;;;;;;0.80;0.80;;;8.20;99.90;;;;;;4988594;28;20218;-81
2021/12/29 07:25:52;;;;;;;1.23;0.75;;;8.20;99.90;;;;;;4997809;28;20218;-83
2021/12/29 07:28:19;;;;;;;5.20;1.25;;;8.10;99.90;;;;;;4989386;28;20207;-83
2021/12/29 07:30:46;;;;;;;1.02;0.90;;;8.20;99.90;;;;;;4978393;28;20231;-82
2021/12/29 07:33:13;;;;;;;2.47;1.20;;;8.30;99.90;;;;;;4987229;28;20200;-83
2021/12/29 07:35:41;;;;;;;2.75;2.28;;;8.30;99.90;;;;;;4998720;28;20246;-83
2021/12/29 07:38:07;;;;;;;2.78;1.52;;;8.30;99.90;;;;;;4991496;28;20581;-82
2021/12/29 07:40:34;;;;;;;2.88;1.38;;;8.30;99.90;;;;;;4978464;28;20225;-82
2021/12/29 07:43:02;;;;;;;2.25;2.05;;;8.40;99.90;;;;;;4983658;28;20200;-83
2021/12/29 07:45:30;;;;;;;3.92;1.77;;;8.50;99.90;;;;;;4997572;28;20235;-83
2021/12/29 07:47:57;;;;;;;1.55;1.30;;;8.60;99.90;;;;;;4992347;28;20224;-82
2021/12/29 07:50:24;;;;;;;1.77;1.30;;;8.70;99.90;;;;;;4977226;28;20287;-83
2021/12/29 07:52:52;;;;;;;2.03;1.63;;;8.70;99.90;;;;;;4979801;28;20204;-82
2021/12/29 07:55:20;;;;;;;1.30;1.20;;;8.70;99.90;;;;;;4997035;28;20207;-83
2021/12/29 07:57:48;;;;;;;4.18;3.78;;;8.60;99.90;;;;;;4990325;28;20241;-82
2021/12/29 08:00:16;;;;;;;1.45;1.35;;;8.80;99.90;;;;;;4978811;28;20782;-82
2021/12/29 08:02:44;;;;;;;1.60;1.50;;;8.80;99.90;;;;;;4985244;28;20224;-82
2021/12/29 08:05:12;;;;;;;1.58;1.23;;;8.90;99.90;;;;;;5010325;28;20200;-82
2021/12/29 08:07:39;;;;;;;2.15;1.00;;;8.60;99.90;;;;;;5009646;28;20212;-81
2021/12/29 08:10:09;;;;;;;0.95;0.77;;;8.30;99.90;;;;;;5007396;28;20238;-83
2021/12/29 08:12:36;;;;;;;1.48;1.08;;;8.20;99.90;;;;;;4991972;28;20204;-82
2021/12/29 08:15:04;;;;;;;1.48;1.25;;;8.10;99.90;;;;;;4977269;28;20212;-82
2021/12/29 08:17:32;;;;;;;1.83;1.55;;;8.00;99.90;;;;;;4980232;28;20208;-80
2021/12/29 08:19:59;;;;;;;2.20;1.60;;;8.00;99.90;;;;;;4996529;28;20239;-82
2021/12/29 08:22:26;;;;;;;1.98;1.67;;;8.10;99.90;;;;;;4992859;28;20231;-82
2021/12/29 08:24:53;;;;;;;4.50;2.88;;;8.10;99.90;;;;;;4977313;28;20697;-83
2021/12/29 08:27:21;;;;;;;2.13;1.75;;;8.20;99.90;;;;;;4977406;28;20235;-81
2021/12/29 08:29:49;;;;;;;2.15;1.88;;;8.40;99.90;;;;;;4998738;28;20751;-82
2021/12/29 08:32:16;;;;;;;1.88;1.73;;;8.50;99.90;;;;;;4994153;28;20207;-82
2021/12/29 08:34:43;;;;;;;7.35;2.45;;;8.60;99.90;;;;;;4981494;28;20212;-82
2021/12/29 08:37:10;;;;;;;3.83;2.20;;;8.70;99.90;;;;;;4977472;28;20213;-82
2021/12/29 08:39:37;;;;;;;1.92;1.77;;;8.90;99.90;;;;;;4990387;28;20224;-78
2021/12/29 08:42:04;;;;;;;2.53;2.40;;;9.00;99.90;;;;;;4979655;28;20230;-78
2021/12/29 08:44:32;;;;;;;1.50;1.40;;;9.10;99.90;;;;;;4980450;28;20208;-78
2021/12/29 08:46:59;;;;;;;2.35;2.15;;;9.20;99.90;;;;;;4981773;28;20212;-78
2021/12/29 08:49:25;;;;;;;1.90;1.77;;;9.30;99.90;;;;;;4980234;28;20229;-78
2021/12/29 08:51:52;;;;;;;2.70;1.80;;;9.40;99.90;;;;;;4984100;28;20547;-78
2021/12/29 08:54:19;;;;;;;1.95;1.50;;;9.40;99.90;;;;;;4998884;28;20588;-78
2021/12/29 08:56:46;;;;;;;0.90;0.90;;;9.50;99.90;;;;;;5000106;28;20196;-77
2021/12/29 08:59:13;;;;;;;1.10;1.00;;;9.60;99.90;;;;;;4984100;28;20211;-78
2021/12/29 09:01:41;;;;;;;0.90;0.90;;;9.60;99.90;;;;;;4984887;28;20271;-78
2021/12/29 09:04:08;;;;;;;5.05;1.38;;;9.70;99.90;;;;;;5002045;28;20215;-79
2021/12/29 09:06:35;;;;;;;3.47;1.10;;;9.70;99.90;;;;;;5001704;28;20213;-78
2021/12/29 09:09:03;;;;;;;2.35;1.40;;;9.70;99.90;;;;;;4982792;28;20209;-83
2021/12/29 09:11:30;;;;;;;1.95;1.85;;;9.60;99.90;;;;;;4981779;28;20222;-82
2021/12/29 09:13:57;;;;;;;0.90;0.90;;;9.60;99.90;;;;;;4979595;28;20205;-82
2021/12/29 09:16:28;;;;;;;1.33;1.23;;;9.60;99.90;;;;;;4979054;28;20217;-83
2021/12/29 09:18:56;;;;;;;3.08;1.10;;;9.60;99.90;;;;;;4984788;28;20201;-82
2021/12/29 09:21:26;;;;;;;2.55;1.27;;;9.60;99.90;;;;;;4988772;28;20226;-82
2021/12/29 09:23:53;;;;;;;1.10;1.00;;;9.70;99.90;;;;;;4991268;28;20229;-81
2021/12/29 09:26:20;;;;;;;1.10;1.10;;;9.70;99.90;;;;;;4985997;28;20205;-82
2021/12/29 09:28:48;;;;;;;0.90;0.77;;;9.80;99.90;;;;;;4981775;28;20217;-81
2021/12/29 09:31:18;;;;;;;1.50;0.95;;;9.80;99.90;;;;;;4977597;28;20232;-81
2021/12/29 09:33:46;;;;;;;1.42;1.33;;;9.80;99.90;;;;;;4989462;28;20283;-82
2021/12/29 09:36:15;;;;;;;4.25;1.20;;;9.70;99.90;;;;;;4986002;28;20201;-79
2021/12/29 09:38:42;;;;;;;2.60;1.13;;;9.70;99.90;;;;;;4976082;28;20201;-80
2021/12/29 09:41:11;;;;;;;1.70;1.05;;;9.80;99.90;;;;;;4976124;28;20664;-82
2021/12/29 09:43:39;;;;;;;2.00;1.38;;;9.70;99.90;;;;;;4976378;28;20232;-80
2021/12/29 09:46:06;;;;;;;2.50;1.33;;;9.70;99.90;;;;;;4982676;28;20201;-80
2021/12/29 09:48:33;;;;;;;2.85;1.30;;;9.50;99.90;;;;;;4980776;28;20203;-80
2021/12/29 09:51:01;;;;;;;2.47;1.38;;;9.50;99.90;;;;;;4995328;28;20593;-80
2021/12/29 09:53:29;;;;;;;1.38;0.93;;;9.50;99.90;;;;;;4995460;28;20217;-81
2021/12/29 09:55:56;;;;;;;2.90;1.67;;;9.60;99.90;;;;;;4992774;28;20231;-80
2021/12/29 09:58:23;;;;;;;2.00;1.90;;;9.60;99.90;;;;;;4994658;28;20568;-79
2021/12/29 10:03:53;;;;;;;;;;;;;;;;;;;;;
2021/12/29 10:09:40;;;;;;;2.78;1.10;;;9.60;99.90;;;;;;4981386;28;20280;-83
2021/12/29 10:12:20;;;;;;;1.38;1.05;;;9.60;99.90;;;;;;4965061;28;20211;-83
2021/12/29 10:14:56;;;;;;;3.20;1.40;;;9.60;99.90;;;;;;4952716;29;20206;-84
2021/12/29 10:17:31;;;;;;;1.63;1.10;;;9.60;99.90;;;;;;4963887;29;20266;-84
2021/12/29 10:20:14;;;;;;;2.45;1.30;;;9.60;99.90;;;;;;4950277;29;20285;-83
2021/12/29 10:23:08;;;;;;;2.70;1.40;;;9.70;99.90;;;;;;4951277;29;20226;-83
2021/12/29 10:26:10;;;;;;;4.25;1.60;;;9.70;99.90;;;;;;4962349;29;20647;-84
2021/12/29 10:29:10;;;;;;;1.20;1.10;;;9.70;99.90;;;;;;4885543;29;20249;-83
2021/12/29 10:31:55;;;;;;;4.78;2.67;;;9.70;99.90;;;;;;4879016;29;20327;-84
2021/12/29 10:38:33;;;;;;;2.10;1.50;;;9.80;99.90;;;;;;4797634;29;20239;-84
2021/12/29 10:41:09;;;;;;;1.70;1.30;;;9.90;99.90;;;;;;4925702;29;20253;-84
2021/12/29 10:43:38;;;;;;;3.25;1.23;;;10.00;99.90;;;;;;4964217;29;20229;-84
2021/12/29 10:46:17;;;;;;;2.45;1.10;;;9.90;99.90;;;;;;4959652;29;20218;-84
2021/12/29 10:48:48;;;;;;;3.10;1.40;;;10.00;99.90;;;;;;4947335;29;20206;-83
2021/12/29 10:51:15;;;;;;;1.77;1.17;;;9.90;99.90;;;;;;4957554;29;20233;-84
2021/12/29 10:53:41;;;;;;;1.63;1.52;;;10.00;99.90;;;;;;4960211;29;20293;-84
2021/12/29 10:56:20;;;;;;;1.50;1.02;;;10.00;99.90;;;;;;4959598;29;20206;-84
2021/12/29 10:58:46;;;;;;;2.53;1.15;;;9.90;99.90;;;;;;4959748;29;20217;-84
2021/12/29 11:01:16;;;;;;;2.08;1.35;;;10.00;99.90;;;;;;4948981;29;20227;-84
2021/12/29 11:03:46;;;;;;;1.83;1.70;;;10.00;99.90;;;;;;4940783;29;20230;-84
2021/12/29 11:06:14;;;;;;;2.90;1.25;;;10.10;99.90;;;;;;4957986;29;20211;-84
2021/12/29 11:08:49;;;;;;;1.33;0.90;;;10.20;99.90;;;;;;4962036;29;20481;-84
2021/12/29 11:11:19;;;;;;;1.58;0.70;;;10.10;99.90;;;;;;4960211;28;20232;-84
2021/12/29 11:13:49;;;;;;;1.20;1.10;;;10.10;99.90;;;;;;4966450;29;20205;-83
2021/12/29 11:16:19;;;;;;;1.15;1.05;;;10.10;99.90;;;;;;4964481;29;20838;-84
2021/12/29 11:18:49;;;;;;;1.90;1.08;;;10.20;99.90;;;;;;4949798;29;20552;-84
2021/12/29 11:21:25;;;;;;;2.67;1.10;;;10.20;99.90;;;;;;4950398;29;20318;-84
2021/12/29 11:23:52;;;;;;;1.60;0.90;;;10.20;99.90;;;;;;4947220;29;20500;-84
2021/12/29 11:26:33;;;;;;;3.13;1.10;;;10.10;99.90;;;;;;4948559;29;20214;-84
2021/12/29 11:29:04;;;;;;;2.35;2.00;;;10.10;99.90;;;;;;4957176;29;20233;-84
2021/12/29 11:31:36;;;;;;;1.85;1.00;;;10.00;99.90;;;;;;4958115;28;20231;-84
2021/12/29 11:34:19;;;;;;;2.45;1.23;;;10.00;99.90;;;;;;4955645;29;20206;-84
2021/12/29 11:36:46;;;;;;;2.15;1.05;;;9.80;99.90;;;;;;4950331;29;20202;-84
2021/12/29 11:39:13;;;;;;;3.40;1.48;;;9.80;99.90;;;;;;4948642;29;20201;-84
2021/12/29 11:41:42;;;;;;;2.00;1.25;;;10.00;99.90;;;;;;4955136;28;20253;-83
2021/12/29 11:44:09;;;;;;;1.40;1.30;;;9.90;99.90;;;;;;4953288;29;20251;-85
2021/12/29 11:46:38;;;;;;;1.48;1.05;;;9.90;99.90;;;;;;4952493;29;20214;-83
2021/12/29 11:49:07;;;;;;;2.03;1.27;;;10.00;99.90;;;;;;4959356;28;20262;-83
2021/12/29 11:51:51;;;;;;;1.88;1.30;;;10.20;99.90;;;;;;4964677;28;20254;-83
2021/12/29 11:54:25;;;;;;;1.42;1.33;;;10.20;99.90;;;;;;4949606;28;20686;-84
2021/12/29 12:04:59;;;;;;;1.70;1.50;;;10.20;99.90;;;;;;4979162;28;20257;-83
2021/12/29 12:07:28;;;;;;;7.03;1.60;;;10.20;99.90;;;;;;4973398;28;20200;-83
2021/12/29 12:13:19;;;;;;;2.30;1.65;;;10.20;99.90;;;;;;4982004;28;20457;-84
2021/12/29 12:15:46;;;;;;;3.72;2.28;;;10.20;99.90;;;;;;4985526;28;20669;-82
2021/12/29 12:25:03;;;;;;;3.50;1.63;;;10.40;99.90;;;;;;4897994;29;20232;-84
2021/12/29 12:27:41;;;;;;;3.85;1.90;;;10.60;99.90;;;;;;4901843;29;20896;-84
2021/12/29 12:40:19;;;;;;;;;;;;;;;;;;;;;
2021/12/29 12:43:47;;;;;;;2.60;2.10;;;10.70;99.90;;;;;;4944622;29;20311;-84
2021/12/29 12:49:56;;;;;;;5.22;1.45;;;10.70;99.90;;;;;;4778870;29;20203;-84
2021/12/29 12:52:30;;;;;;;5.70;1.73;;;10.60;99.90;;;;;;4940407;29;20346;-83
2021/12/29 12:55:00;;;;;;;2.97;2.45;;;10.50;99.90;;;;;;4944002;29;20211;-83
2021/12/29 13:07:00;;;;;;;3.72;2.17;;;10.30;99.90;;;;;;4949920;28;20232;-82
2021/12/29 13:09:27;;;;;;;8.63;2.83;;;10.40;99.90;;;;;;5022273;28;20221;-84
2021/12/29 13:11:54;;;;;;;3.90;1.85;;;10.40;99.90;;;;;;5018903;28;20476;-83
2021/12/29 13:14:22;;;;;;;3.53;1.60;;;10.30;99.90;;;;;;5019933;28;20213;-83
2021/12/29 13:16:49;;;;;;;2.08;1.88;;;10.30;99.90;;;;;;5019939;28;20215;-83
2021/12/29 13:19:16;;;;;;;3.20;2.10;;;10.40;99.90;;;;;;5019921;28;20240;-83
2021/12/29 13:21:45;;;;;;;2.85;1.83;;;10.40;99.90;;;;;;5019054;28;20718;-83
2021/12/29 13:24:14;;;;;;;2.55;1.80;;;10.30;99.90;;;;;;5019144;28;20578;-83
2021/12/29 13:26:44;;;;;;;3.42;2.10;;;10.40;99.90;;;;;;5019701;28;20208;-83
2021/12/29 13:29:16;;;;;;;6.38;2.20;;;10.30;99.90;;;;;;5019432;28;20213;-83
2021/12/29 13:31:44;;;;;;;1.73;1.55;;;10.30;99.90;;;;;;5019115;28;20240;-83
2021/12/29 13:34:11;;;;;;;3.00;1.60;;;10.20;99.90;;;;;;5019662;28;20579;-82
2021/12/29 13:36:41;;;;;;;3.25;1.77;;;10.20;99.90;;;;;;5019245;28;20456;-82
2021/12/29 13:39:08;;;;;;;1.50;1.38;;;10.30;99.90;;;;;;5019422;28;20203;-83
2021/12/29 13:41:37;;;;;;;4.25;2.40;;;10.30;99.90;;;;;;5019508;28;20336;-83
2021/12/29 13:44:06;;;;;;;1.70;1.60;;;10.30;99.90;;;;;;5019129;28;20564;-83
2021/12/29 13:46:34;;;;;;;3.85;1.80;;;10.30;99.90;;;;;;5017452;28;20216;-83
2021/12/29 13:49:10;;;;;;;1.70;1.13;;;10.30;99.90;;;;;;5018575;28;20212;-83
2021/12/29 13:51:39;;;;;;;2.20;1.50;;;10.20;99.90;;;;;;5017853;28;20236;-83
2021/12/29 13:54:07;;;;;;;3.10;1.88;;;10.30;99.90;;;;;;5017994;28;20451;-82
2021/12/29 13:56:36;;;;;;;5.15;1.80;;;10.30;99.90;;;;;;5018010;28;20585;-82
2021/12/29 13:59:06;;;;;;;1.75;1.27;;;10.30;99.90;;;;;;5018986;28;20216;-82
2021/12/29 14:01:34;;;;;;;1.25;1.02;;;10.20;99.90;;;;;;5018256;28;20227;-82
2021/12/29 14:04:03;;;;;;;2.30;1.20;;;10.10;99.90;;;;;;5018432;28;20236;-83
2021/12/29 14:06:30;;;;;;;2.83;1.43;;;10.20;99.90;;;;;;5018319;28;20209;-85
2021/12/29 14:08:58;;;;;;;2.20;1.30;;;10.10;99.90;;;;;;5017680;28;20445;-83